Minster, Ohio
Current Conditions -  °F | °C
As of 12:34 PM on Friday 24 Oct 2014 (Local Time) from KAXV Reporting Station
Clear Clear  
Wind Chill: 59°   Ceiling: Unl
Heat Index: 59°   Visibility: 10mi
Dew Point: 43°   Wind: 5mph
Humidity: 55%   Direction: 240°WSW
Pressure: 30.1"   Gusts: NA
Location:  40.39°N, 84.38°W
Report Text: KAXV 241634Z AUTO 24004KT 10SM CLR 15/06 A3010 RMK AO2
Loading
Personal Weather Stations






























Interactive Weather Map
Tropical Storm Tracking
New forecast layout! Learn more

10-Day Weather Forecast

Advertisements
Track Severe Weather on mobile